Time;durP1;ratioP1;P1;durP2;ratioP2;P2;SDS_P1;SDS_P2;PMS_P1;PMS_P2;Temp;Humidity;BMP_temperature;BMP_pressure;BME280_temperature;BME280_humidity;BME280_pressure;Samples;Min_cycle;Max_cycle;Signal;HPM_P1;HPM_P2
2022/11/15 00:00:06;;;;;;;;;4.25;3.50;;;;;18.79;47.79;100532.06;5065372;28;44785;-56
2022/11/15 00:02:31;;;;;;;;;6.50;2.50;;;;;18.81;47.77;100537.22;5080575;28;44693;-56
2022/11/15 00:04:57;;;;;;;;;4.50;3.00;;;;;18.82;48.13;100534.50;5068301;28;45191;-56
2022/11/15 00:07:22;;;;;;;;;3.50;3.50;;;;;18.82;47.52;100539.75;5060561;28;47389;-56
2022/11/15 00:09:47;;;;;;;;;3.00;3.00;;;;;18.83;47.64;100538.84;5059465;28;45433;-56
2022/11/15 00:12:13;;;;;;;;;5.00;4.00;;;;;18.82;47.81;100537.13;5058021;28;56829;-55
2022/11/15 00:14:38;;;;;;;;;2.00;2.00;;;;;18.82;47.81;100534.50;5058865;28;45666;-56
2022/11/15 00:17:04;;;;;;;;;3.25;3.25;;;;;18.80;47.66;100520.63;5056615;28;48029;-56
2022/11/15 00:19:29;;;;;;;;;4.00;2.75;;;;;18.81;47.62;100521.47;5059030;28;55625;-56
2022/11/15 00:21:54;;;;;;;;;3.75;3.00;;;;;18.82;47.97;100521.38;5060515;28;45263;-56
2022/11/15 00:24:19;;;;;;;;;2.75;2.75;;;;;18.81;47.74;100511.81;5058628;28;45479;-55
2022/11/15 00:26:45;;;;;;;;;2.00;2.00;;;;;18.81;47.94;100522.31;5056780;28;48625;-56
2022/11/15 00:29:10;;;;;;;;;2.00;2.00;;;;;18.81;47.88;100519.69;5058163;28;45360;-56
2022/11/15 00:31:35;;;;;;;;;4.25;3.00;;;;;18.81;47.89;100517.06;5058289;28;45473;-56
2022/11/15 00:34:01;;;;;;;;;4.25;2.00;;;;;18.82;47.47;100512.69;5058750;28;45271;-57
2022/11/15 00:36:26;;;;;;;;;2.50;2.00;;;;;18.81;47.48;100516.22;5057230;28;68676;-57
2022/11/15 00:38:51;;;;;;;;;3.00;3.00;;;;;18.81;48.15;100518.84;5058593;28;45446;-56
2022/11/15 00:41:16;;;;;;;;;2.67;2.67;;;;;18.81;48.09;100506.56;5059211;28;48066;-57
2022/11/15 00:43:43;;;;;;;;;3.00;3.00;;;;;18.80;48.02;100499.59;5058067;28;45263;-57
2022/11/15 00:46:09;;;;;;;;;4.50;3.00;;;;;18.80;47.80;100499.59;5060501;28;46159;-56
2022/11/15 00:48:35;;;;;;;;;2.75;2.75;;;;;18.78;47.81;100493.63;5060297;28;45426;-57
2022/11/15 00:51:00;;;;;;;;;3.00;3.00;;;;;18.80;47.45;100499.59;5059084;28;45358;-58
2022/11/15 00:53:26;;;;;;;;;4.75;3.75;;;;;18.79;47.29;100489.19;5061983;28;45497;-56
2022/11/15 00:55:52;;;;;;;;;4.00;2.00;;;;;18.77;47.82;100494.53;5061158;28;45351;-56
2022/11/15 00:58:18;;;;;;;;;2.25;2.25;;;;;18.80;47.47;100501.41;5057922;28;45284;-56
2022/11/15 01:00:43;;;;;;;;;2.00;2.00;;;;;18.79;47.41;100495.31;5058116;28;45296;-55
2022/11/15 01:03:08;;;;;;;;;3.00;3.00;;;;;18.79;47.35;100490.06;5057842;28;45611;-55
2022/11/15 01:05:36;;;;;;;;;5.50;3.00;;;;;18.79;47.62;100487.44;5078179;28;45145;-55
2022/11/15 01:08:01;;;;;;;;;3.00;3.00;;;;;18.75;47.60;100474.53;5075773;28;45812;-56
2022/11/15 01:10:27;;;;;;;;;5.50;3.00;;;;;18.78;47.89;100479.63;5057904;28;45322;-56
2022/11/15 01:12:52;;;;;;;;;3.00;3.00;;;;;18.78;47.83;100482.25;5057504;28;45613;-56
2022/11/15 01:15:17;;;;;;;;;3.00;2.00;;;;;18.79;47.55;100478.69;5065852;28;45307;-56
2022/11/15 01:17:43;;;;;;;;;2.50;1.25;;;;;18.77;47.54;100478.78;5072305;28;45251;-56
2022/11/15 01:20:09;;;;;;;;;2.00;2.00;;;;;18.79;47.54;100465.56;5057649;28;45363;-55
2022/11/15 01:22:34;;;;;;;;;3.50;2.00;;;;;18.77;47.74;100462.16;5057987;28;45319;-56
2022/11/15 01:24:59;;;;;;;;;2.50;2.50;;;;;18.77;47.69;100463.03;5057486;28;63886;-56
2022/11/15 01:27:25;;;;;;;;;2.50;2.50;;;;;18.78;47.71;100456.00;5060659;28;45332;-56
2022/11/15 01:29:50;;;;;;;;;2.00;2.00;;;;;18.76;47.72;100458.72;5060649;28;45478;-56
2022/11/15 01:32:15;;;;;;;;;3.00;3.00;;;;;18.78;47.43;100461.25;5057692;28;49391;-56
2022/11/15 01:34:41;;;;;;;;;2.00;2.00;;;;;18.77;47.35;100460.41;5057283;28;46226;-55
2022/11/15 01:37:06;;;;;;;;;4.00;2.00;;;;;18.75;47.21;100443.88;5056820;28;51898;-56
2022/11/15 01:39:31;;;;;;;;;2.00;2.00;;;;;18.76;47.22;100450.84;5057711;28;45267;-55
2022/11/15 01:41:57;;;;;;;;;2.75;2.75;;;;;18.76;47.28;100440.34;5057102;28;45532;-56
2022/11/15 01:44:34;;;;;;;;;1.25;1.25;;;;;18.76;47.51;100440.34;5056769;28;47066;-56
2022/11/15 01:47:05;;;;;;;;;4.00;2.00;;;;;18.77;47.36;100441.16;5056862;28;45402;-55
2022/11/15 01:49:33;;;;;;;;;2.00;2.00;;;;;18.77;47.23;100441.16;5057307;28;45432;-55
2022/11/15 01:52:03;;;;;;;;;3.00;2.00;;;;;18.75;47.66;100433.38;5056809;28;45616;-56
2022/11/15 01:54:29;;;;;;;;;1.75;1.75;;;;;18.76;47.52;100429.84;5056496;28;47067;-56
2022/11/15 01:57:07;;;;;;;;;2.50;2.50;;;;;18.76;47.33;100419.34;5055651;28;45423;-55
2022/11/15 01:59:34;;;;;;;;;2.00;2.00;;;;;18.75;47.09;100417.63;5041001;28;45436;-53
2022/11/15 02:02:00;;;;;;;;;3.00;1.25;;;;;18.74;47.10;100407.22;5058862;28;45234;-56
2022/11/15 02:04:28;;;;;;;;;2.25;2.25;;;;;18.74;47.35;100410.69;5056482;28;45449;-55
2022/11/15 02:06:54;;;;;;;;;2.25;2.25;;;;;18.74;47.23;100405.44;5062530;28;45382;-55
2022/11/15 02:09:19;;;;;;;;;3.00;2.00;;;;;18.74;47.38;100402.81;5071298;28;44728;-56
2022/11/15 02:11:47;;;;;;;;;3.50;2.75;;;;;18.73;47.06;100401.13;5063838;28;45244;-55
2022/11/15 02:14:15;;;;;;;;;3.50;2.25;;;;;18.73;47.47;100398.50;5058314;28;46934;-56
2022/11/15 02:16:58;;;;;;;;;1.50;1.50;;;;;18.73;47.02;100401.13;5056831;28;45829;-55
2022/11/15 02:19:32;;;;;;;;;2.00;2.00;;;;;18.72;47.24;100391.53;5056438;28;45462;-56
2022/11/15 02:22:19;;;;;;;;;1.75;1.75;;;;;18.72;47.15;100388.91;5057329;28;45319;-56
2022/11/15 02:25:03;;;;;;;;;1.00;1.00;;;;;18.72;47.29;100381.03;5057896;28;47335;-55
2022/11/15 02:27:53;;;;;;;;;3.00;2.00;;;;;18.72;47.05;100377.59;5058535;28;45779;-57
2022/11/15 02:30:21;;;;;;;;;4.00;2.00;;;;;18.71;47.45;100374.09;5061481;28;45371;-56
2022/11/15 02:32:57;;;;;;;;;3.00;3.00;;;;;18.70;46.96;100367.16;5059478;28;45224;-57
2022/11/15 02:35:48;;;;;;;;;2.00;2.00;;;;;18.71;47.30;100368.84;5078784;28;46135;-60
2022/11/15 02:38:38;;;;;;;;;3.00;1.00;;;;;18.68;47.01;100363.78;5057938;28;45366;-56
2022/11/15 02:41:13;;;;;;;;;3.75;3.00;;;;;18.68;47.21;100358.53;5056463;28;45697;-57
2022/11/15 02:43:57;;;;;;;;;6.00;2.75;;;;;18.69;46.97;100358.44;5057749;28;45268;-55
2022/11/15 02:49:28;;;;;;;;;1.00;1.00;;;;;18.67;47.14;100338.47;5057217;28;45353;-56
2022/11/15 02:51:55;;;;;;;;;1.75;1.00;;;;;18.69;46.87;100339.19;5057031;28;45220;-53
2022/11/15 02:54:28;;;;;;;;;2.00;2.00;;;;;18.67;47.13;100335.84;5061631;28;45897;-55
2022/11/15 02:56:59;;;;;;;;;3.75;2.25;;;;;18.66;46.95;100334.97;5061473;28;45399;-56
2022/11/15 02:59:39;;;;;;;;;1.00;1.00;;;;;18.68;47.09;100329.66;5061622;28;45384;-54
2022/11/15 03:02:12;;;;;;;;;2.50;2.00;;;;;18.67;46.77;100320.09;5067245;28;45116;-56
2022/11/15 03:04:43;;;;;;;;;1.75;1.75;;;;;18.68;46.77;100321.78;5072138;28;45185;-54
2022/11/15 03:07:35;;;;;;;;;2.00;2.00;;;;;18.66;47.12;100313.97;5060271;28;45473;-56
2022/11/15 03:10:18;;;;;;;;;2.25;1.75;;;;;18.67;46.77;100309.59;5083472;28;45151;-56
2022/11/15 03:12:57;;;;;;;;;2.25;2.00;;;;;18.65;46.62;100303.56;5067346;28;45151;-57
2022/11/15 03:15:31;;;;;;;;;2.25;2.25;;;;;18.64;46.92;100300.09;5060617;28;45643;-57
2022/11/15 03:18:04;;;;;;;;;3.50;2.00;;;;;18.65;46.99;100298.31;5059456;28;46874;-57
2022/11/15 03:20:31;;;;;;;;;1.50;1.50;;;;;18.63;46.66;100292.31;5060483;28;45346;-56
2022/11/15 03:23:03;;;;;;;;;1.00;1.00;;;;;18.65;46.81;100295.69;5063125;28;45605;-56
2022/11/15 03:25:31;;;;;;;;;1.75;1.75;;;;;18.65;47.03;100296.53;5072477;28;44804;-56
2022/11/15 03:28:02;;;;;;;;;1.50;1.50;;;;;18.64;46.96;100294.00;5060982;28;46171;-56
2022/11/15 03:30:30;;;;;;;;;3.00;1.75;;;;;18.63;46.43;100292.31;5059957;28;45398;-56
2022/11/15 03:32:57;;;;;;;;;2.50;1.75;;;;;18.63;46.68;100292.31;5060822;28;45308;-56
2022/11/15 03:35:44;;;;;;;;;2.25;2.25;;;;;18.64;46.58;100288.75;5065153;28;45563;-56
2022/11/15 03:38:21;;;;;;;;;1.00;1.00;;;;;18.63;46.53;100287.06;5073219;28;45545;-56
2022/11/15 03:40:58;;;;;;;;;3.00;2.00;;;;;18.63;46.54;100282.63;5065340;28;45300;-57
2022/11/15 03:43:44;;;;;;;;;2.00;2.00;;;;;18.63;46.94;100276.56;5059141;28;45556;-56
2022/11/15 03:46:26;;;;;;;;;0.25;0.00;;;;;18.63;46.41;100281.81;5060395;28;45236;-56
2022/11/15 03:49:02;;;;;;;;;3.00;2.00;;;;;18.64;46.40;100278.25;5062208;28;46379;-56
2022/11/15 03:51:28;;;;;;;;;4.00;2.00;;;;;18.61;46.40;100268.78;5062288;28;45758;-56
2022/11/15 03:53:54;;;;;;;;;3.50;3.00;;;;;18.60;46.55;100271.47;5074264;28;44701;-56
2022/11/15 03:56:19;;;;;;;;;2.00;2.00;;;;;18.62;46.47;100274.88;5076520;28;44808;-56
2022/11/15 03:58:44;;;;;;;;;3.00;1.00;;;;;18.62;46.30;100264.38;5065284;28;48708;-57
2022/11/15 04:01:10;;;;;;;;;2.25;2.25;;;;;18.62;46.53;100265.22;5064835;28;45303;-57
2022/11/15 04:03:35;;;;;;;;;3.67;1.00;;;;;18.61;46.89;100267.91;5078508;28;53677;-57
2022/11/15 04:06:00;;;;;;;;;1.75;1.75;;;;;18.60;46.34;100261.84;5079855;28;45873;-56
2022/11/15 04:08:25;;;;;;;;;1.00;1.00;;;;;18.61;46.61;100258.28;5078290;28;54120;-55
2022/11/15 04:10:51;;;;;;;;;3.33;2.00;;;;;18.60;46.42;100253.97;5075511;28;51911;-56
2022/11/15 04:13:16;;;;;;;;;1.75;1.75;;;;;18.60;46.56;100260.97;5070530;28;45381;-56
2022/11/15 04:15:42;;;;;;;;;1.50;1.50;;;;;18.60;46.23;100248.72;5060675;28;45421;-55
2022/11/15 04:18:07;;;;;;;;;3.00;2.00;;;;;18.59;46.35;100251.41;5062550;28;45380;-56
2022/11/15 04:26:05;;;;;;;;;2.00;2.00;;;;;18.60;46.24;100256.59;5058921;28;45416;-57
2022/11/15 04:28:31;;;;;;;;;3.00;2.00;;;;;18.58;46.20;100250.56;5058263;28;46102;-56
2022/11/15 04:30:56;;;;;;;;;1.00;1.00;;;;;18.59;46.15;100249.66;5058358;28;45463;-56
2022/11/15 04:33:22;;;;;;;;;2.00;2.00;;;;;18.57;46.00;100242.81;5058583;28;45340;-55
2022/11/15 04:37:11;;;;;;;;;2.00;2.00;;;;;18.59;46.41;100240.91;5061169;28;45785;-56
2022/11/15 04:38:33;;;;;;;;;2.00;2.00;;;;;18.59;46.08;100238.28;5062347;28;45436;-56
2022/11/15 04:40:58;;;;;;;;;2.00;2.00;;;;;18.58;46.31;100233.97;5057959;28;45854;-55
2022/11/15 04:43:24;;;;;;;;;1.00;1.00;;;;;18.58;46.07;100229.56;5057653;28;52910;-56
2022/11/15 04:45:49;;;;;;;;;1.25;1.25;;;;;18.57;46.19;100227.06;5058350;28;45552;-56
2022/11/15 04:48:14;;;;;;;;;1.25;1.25;;;;;18.57;46.58;100229.69;5056282;28;61202;-57
2022/11/15 04:50:39;;;;;;;;;2.50;1.00;;;;;18.57;46.12;100213.94;5056499;28;45348;-57
2022/11/15 04:53:05;;;;;;;;;1.25;1.25;;;;;18.57;46.36;100208.69;5057728;28;47077;-56
2022/11/15 04:55:31;;;;;;;;;3.00;2.00;;;;;18.56;45.83;100207.00;5058106;28;45530;-56
2022/11/15 04:58:01;;;;;;;;;1.50;1.50;;;;;18.54;46.05;100197.41;5057832;28;45966;-56
2022/11/15 05:00:27;;;;;;;;;1.00;1.00;;;;;18.54;45.98;100200.03;5056513;28;45332;-58
2022/11/15 05:05:37;;;;;;;;;3.00;2.00;;;;;18.56;46.49;100194.69;5058077;28;45259;-57
2022/11/15 05:08:03;;;;;;;;;1.00;1.00;;;;;18.53;46.37;100187.00;5059471;28;47155;-57
2022/11/15 05:10:28;;;;;;;;;2.00;1.75;;;;;18.54;46.18;100184.28;5061774;28;45609;-57
2022/11/15 05:12:53;;;;;;;;;2.25;2.00;;;;;18.53;46.53;100193.09;5079918;28;44640;-57
2022/11/15 05:15:19;;;;;;;;;2.00;1.50;;;;;18.54;46.21;100192.16;5058307;28;45253;-57
2022/11/15 05:17:44;;;;;;;;;4.00;1.25;;;;;18.54;46.27;100189.53;5057910;28;47326;-58
2022/11/15 05:20:10;;;;;;;;;1.00;1.00;;;;;18.53;45.78;100185.22;5058009;28;45322;-57
2022/11/15 05:22:36;;;;;;;;;3.00;1.50;;;;;18.53;46.09;100182.59;5057977;28;45397;-57
2022/11/15 05:25:01;;;;;;;;;1.00;1.00;;;;;18.54;46.05;100194.78;5082876;28;47910;-56
2022/11/15 05:27:26;;;;;;;;;2.00;1.00;;;;;18.53;45.89;100190.47;5083582;28;52230;-56
2022/11/15 05:29:52;;;;;;;;;1.00;1.00;;;;;18.54;46.25;100189.53;5058217;28;45267;-55
2022/11/15 05:32:17;;;;;;;;;0.00;0.00;;;;;18.53;46.42;100187.84;5073703;28;45353;-57
2022/11/15 05:34:43;;;;;;;;;1.00;1.00;;;;;18.54;46.57;100188.69;5080679;28;44659;-56
2022/11/15 05:37:08;;;;;;;;;3.00;1.00;;;;;18.53;46.23;100190.47;5059125;28;46987;-54
2022/11/15 05:39:33;;;;;;;;;2.33;1.33;;;;;18.51;46.15;100192.34;5059216;28;59979;-55
2022/11/15 05:42:09;;;;;;;;;1.50;1.50;;;;;18.52;46.22;100196.66;5060402;28;45256;-57
2022/11/15 05:44:37;;;;;;;;;2.75;2.00;;;;;18.51;46.39;100194.97;5065581;28;45386;-57
2022/11/15 05:47:06;;;;;;;;;1.25;1.25;;;;;18.53;46.51;100202.72;5082559;28;47874;-59
2022/11/15 05:49:35;;;;;;;;;2.00;1.75;;;;;18.52;46.22;100190.56;5058214;28;45358;-57
2022/11/15 05:52:05;;;;;;;;;2.00;1.75;;;;;18.53;46.03;100192.22;5057074;28;45318;-57
2022/11/15 05:54:31;;;;;;;;;1.00;0.75;;;;;18.52;46.26;100190.56;5057149;28;45573;-56
2022/11/15 05:56:57;;;;;;;;;2.00;2.00;;;;;18.51;46.43;100173.97;5056657;28;45338;-57
2022/11/15 05:59:22;;;;;;;;;1.00;1.00;;;;;18.50;45.78;100177.53;5056793;28;45514;-56
2022/11/15 06:01:48;;;;;;;;;1.75;1.25;;;;;18.50;45.94;100172.28;5057225;28;45360;-57
2022/11/15 06:04:13;;;;;;;;;3.00;1.25;;;;;18.50;46.26;100171.44;5058716;28;45366;-57
2022/11/15 06:06:39;;;;;;;;;3.00;2.00;;;;;18.49;46.16;100160.09;5058377;28;55317;-57
2022/11/15 06:09:04;;;;;;;;;1.75;1.75;;;;;18.49;46.26;100154.84;5059733;28;45418;-57
2022/11/15 06:11:29;;;;;;;;;1.67;1.67;;;;;18.47;45.78;100156.69;5059683;28;58645;-56
2022/11/15 06:13:56;;;;;;;;;2.00;2.00;;;;;18.48;46.30;100147.91;5063753;28;45339;-57
2022/11/15 06:16:21;;;;;;;;;1.00;1.00;;;;;18.47;46.25;100156.69;5059902;28;52919;-57
2022/11/15 06:18:46;;;;;;;;;2.75;1.75;;;;;18.48;45.82;100153.13;5059234;28;45264;-56
2022/11/15 06:21:11;;;;;;;;;2.00;2.00;;;;;18.47;46.02;100151.44;5057412;28;46890;-56
2022/11/15 06:23:37;;;;;;;;;4.25;3.00;;;;;18.47;45.96;100137.50;5062447;28;45211;-57
2022/11/15 06:26:03;;;;;;;;;3.00;1.00;;;;;18.46;45.74;100134.03;5076522;28;57561;-57
2022/11/15 06:28:30;;;;;;;;;1.50;1.50;;;;;18.48;46.37;100136.56;5071322;28;45436;-57
2022/11/15 06:30:56;;;;;;;;;1.00;1.00;;;;;18.49;45.98;100122.50;5072380;28;44734;-57
2022/11/15 06:33:22;;;;;;;;;2.25;1.00;;;;;18.47;45.89;100122.59;5059612;28;45363;-56
2022/11/15 06:35:47;;;;;;;;;2.00;2.00;;;;;18.49;45.87;100120.72;5056321;28;47296;-57
2022/11/15 06:38:13;;;;;;;;;1.50;1.50;;;;;18.49;46.24;100119.88;5056908;28;46860;-56
2022/11/15 06:40:39;;;;;;;;;2.00;2.00;;;;;18.47;45.81;100106.84;5056603;28;45836;-57
2022/11/15 06:43:05;;;;;;;;;2.00;1.00;;;;;18.48;45.92;100105.06;5056859;28;45509;-56
2022/11/15 06:45:31;;;;;;;;;1.50;1.50;;;;;18.48;45.96;100099.81;5061230;28;46172;-56
2022/11/15 06:47:57;;;;;;;;;1.75;1.75;;;;;18.48;45.95;100091.97;5058228;28;45310;-56
2022/11/15 06:50:23;;;;;;;;;2.75;1.00;;;;;18.47;45.88;100093.72;5055216;28;45273;-56
2022/11/15 06:52:48;;;;;;;;;1.00;1.00;;;;;18.47;46.31;100090.25;5056283;28;45301;-55
2022/11/15 06:55:14;;;;;;;;;2.25;2.25;;;;;18.47;45.96;100093.72;5054903;28;46277;-56
2022/11/15 06:57:50;;;;;;;;;2.00;2.00;;;;;18.47;46.08;100077.97;5055741;28;45306;-53
2022/11/15 07:00:17;;;;;;;;;2.00;2.00;;;;;18.45;45.71;100077.25;5056271;28;45287;-56
2022/11/15 07:02:43;;;;;;;;;1.00;1.00;;;;;18.47;45.82;100066.66;5056196;28;45577;-56
2022/11/15 07:05:09;;;;;;;;;2.00;2.00;;;;;18.46;45.82;100059.72;5056002;28;46883;-56
2022/11/15 07:07:34;;;;;;;;;1.75;1.75;;;;;18.45;45.97;100052.78;5056051;28;45460;-57
2022/11/15 07:09:59;;;;;;;;;2.00;2.00;;;;;18.44;46.23;100041.44;5056287;28;45460;-56
2022/11/15 07:12:25;;;;;;;;;2.33;1.00;;;;;18.46;46.21;100033.47;5056457;28;46639;-57
2022/11/15 07:14:50;;;;;;;;;2.00;2.00;;;;;18.45;46.15;100031.78;5056665;28;55787;-56
2022/11/15 07:17:15;;;;;;;;;1.00;1.00;;;;;18.44;46.24;100043.22;5068156;28;61867;-57
2022/11/15 07:19:40;;;;;;;;;3.00;2.00;;;;;18.44;45.91;100061.56;5065549;28;45352;-57
2022/11/15 07:22:06;;;;;;;;;1.25;1.00;;;;;18.44;45.88;100069.44;5081353;28;44833;-57
2022/11/15 07:24:31;;;;;;;;;2.00;2.00;;;;;18.44;46.34;100069.44;5057056;28;46219;-57
2022/11/15 07:26:56;;;;;;;;;1.25;1.25;;;;;18.44;45.97;100067.69;5055721;28;45686;-56
2022/11/15 07:29:22;;;;;;;;;1.25;1.25;;;;;18.45;46.20;100063.25;5055712;28;53846;-56
2022/11/15 07:31:47;;;;;;;;;1.25;1.25;;;;;18.45;45.96;100058.00;5056436;28;45964;-54
2022/11/15 07:34:13;;;;;;;;;1.00;1.00;;;;;18.43;46.31;100052.00;5071540;28;46258;-56
2022/11/15 07:36:38;;;;;;;;;1.00;1.00;;;;;18.43;46.21;100059.88;5071801;28;45161;-57
2022/11/15 07:39:04;;;;;;;;;2.00;1.00;;;;;18.44;46.42;100059.81;5056198;28;45326;-57
2022/11/15 07:41:29;;;;;;;;;2.00;2.00;;;;;18.43;46.21;100052.00;5056159;28;45661;-56
2022/11/15 07:43:55;;;;;;;;;1.00;1.00;;;;;18.43;46.21;100050.25;5055697;28;45993;-57
2022/11/15 07:46:20;;;;;;;;;1.00;1.00;;;;;18.44;46.20;100038.81;5056662;28;52230;-57
2022/11/15 07:48:45;;;;;;;;;2.00;2.00;;;;;18.44;46.34;100038.81;5073290;28;45238;-56
2022/11/15 07:51:13;;;;;;;;;2.50;1.00;;;;;18.43;46.11;100029.25;5074753;28;45497;-56
2022/11/15 07:53:38;;;;;;;;;3.00;2.00;;;;;18.44;46.29;100022.22;5070312;28;46696;-54
2022/11/15 07:56:07;;;;;;;;;1.33;1.33;;;;;18.45;46.03;100023.91;5072387;28;64867;-54
2022/11/15 07:58:32;;;;;;;;;2.00;1.00;;;;;18.43;46.41;100015.28;5074749;28;45245;-56
2022/11/15 08:00:58;;;;;;;;;1.00;1.00;;;;;18.45;46.09;100010.78;5080497;28;44869;-55
2022/11/15 08:03:23;;;;;;;;;2.50;2.25;;;;;18.44;46.36;100009.97;5064743;28;46184;-56
2022/11/15 08:05:52;;;;;;;;;1.75;1.75;;;;;18.45;46.32;100005.53;5059885;28;45509;-56
2022/11/15 08:08:17;;;;;;;;;4.00;1.25;;;;;18.43;45.96;100005.66;5072813;28;44675;-55
2022/11/15 08:10:43;;;;;;;;;2.50;1.25;;;;;18.45;46.01;100014.28;5084559;28;45471;-57
2022/11/15 08:13:11;;;;;;;;;3.00;2.25;;;;;18.45;46.39;100006.41;5084554;28;46030;-56
2022/11/15 08:15:37;;;;;;;;;3.50;2.00;;;;;18.45;46.08;100001.16;5073364;28;45764;-58
2022/11/15 08:18:09;;;;;;;;;2.25;2.25;;;;;18.45;46.07;100016.91;5060373;28;45298;-56
2022/11/15 08:20:34;;;;;;;;;1.00;1.00;;;;;18.44;46.54;100006.47;5063402;28;45451;-56
2022/11/15 08:23:01;;;;;;;;;1.00;1.00;;;;;18.45;46.15;100009.03;5059114;28;48144;-56
2022/11/15 08:25:28;;;;;;;;;1.50;1.50;;;;;18.43;46.06;100005.66;5058504;28;45768;-56
2022/11/15 08:27:57;;;;;;;;;2.00;1.00;;;;;18.45;46.29;100014.28;5059230;28;45368;-56
2022/11/15 08:30:23;;;;;;;;;1.50;1.50;;;;;18.45;46.39;100000.28;5059222;28;45426;-57
2022/11/15 08:32:50;;;;;;;;;1.50;1.50;;;;;18.44;46.65;99994.22;5059493;28;46945;-56
2022/11/15 08:35:16;;;;;;;;;3.00;2.00;;;;;18.45;46.02;99990.66;5059019;28;45406;-56
2022/11/15 08:37:41;;;;;;;;;1.25;1.25;;;;;18.45;46.16;99989.81;5060023;28;45278;-56
2022/11/15 08:40:07;;;;;;;;;2.00;2.00;;;;;18.43;46.04;99989.91;5059879;28;45166;-56
2022/11/15 08:42:33;;;;;;;;;2.50;1.00;;;;;18.44;46.29;99988.97;5058341;28;45390;-56
2022/11/15 08:44:58;;;;;;;;;2.25;2.00;;;;;18.44;46.34;99988.09;5058565;28;45252;-56
2022/11/15 08:47:24;;;;;;;;;1.50;1.25;;;;;18.45;46.10;99990.66;5058268;28;45404;-57
2022/11/15 08:49:49;;;;;;;;;1.75;1.75;;;;;18.45;46.43;99984.56;5058096;28;45204;-56
2022/11/15 08:52:15;;;;;;;;;2.00;2.00;;;;;18.45;46.02;99972.28;5058143;28;46139;-57
2022/11/15 08:54:40;;;;;;;;;1.00;1.00;;;;;18.45;45.99;99971.44;5059343;28;45281;-56
2022/11/15 08:57:06;;;;;;;;;1.25;1.25;;;;;18.46;46.35;99966.13;5081589;28;45252;-55
2022/11/15 08:59:31;;;;;;;;;1.25;1.00;;;;;18.46;46.07;99958.25;5084746;28;44895;-56
2022/11/15 09:01:57;;;;;;;;;1.00;1.00;;;;;18.45;46.35;99953.94;5061964;28;45463;-56
2022/11/15 09:04:22;;;;;;;;;1.00;1.00;;;;;18.46;46.25;99949.50;5057911;28;45356;-57
2022/11/15 09:06:48;;;;;;;;;2.00;2.00;;;;;18.47;46.03;99943.31;5075666;28;45266;-56
2022/11/15 09:09:14;;;;;;;;;1.00;1.00;;;;;18.44;46.42;99936.50;5085070;28;44749;-55
2022/11/15 09:11:39;;;;;;;;;2.25;2.00;;;;;18.45;45.81;99938.19;5074963;28;45425;-60
2022/11/15 09:14:04;;;;;;;;;1.33;1.33;;;;;18.44;45.91;99940.88;5060014;28;62379;-55
2022/11/15 09:16:30;;;;;;;;;1.00;1.00;;;;;18.47;46.44;99943.31;5058396;28;45363;-55
2022/11/15 09:18:56;;;;;;;;;4.00;1.00;;;;;18.47;46.38;99941.53;5059002;28;45885;-55
2022/11/15 09:21:22;;;;;;;;;1.00;1.00;;;;;18.47;46.44;99941.53;5064171;28;45405;-54
2022/11/15 09:23:50;;;;;;;;;1.25;1.25;;;;;18.45;46.39;99938.19;5070482;28;45288;-57
2022/11/15 09:26:16;;;;;;;;;1.75;1.75;;;;;18.47;46.08;99935.44;5062937;28;45253;-56
2022/11/15 09:28:41;;;;;;;;;1.50;1.00;;;;;18.45;46.35;99938.19;5058299;28;45394;-56
2022/11/15 09:31:07;;;;;;;;;1.00;1.00;;;;;18.48;46.05;99935.34;5057065;28;46959;-56
2022/11/15 09:33:33;;;;;;;;;1.00;1.00;;;;;18.47;46.15;99944.16;5057249;28;45409;-56
2022/11/15 09:36:04;;;;;;;;;1.00;1.00;;;;;18.47;45.94;99941.53;5057054;28;45790;-55
2022/11/15 09:38:29;;;;;;;;;1.25;1.25;;;;;18.47;45.93;99940.69;5057434;28;45431;-56
2022/11/15 09:41:13;;;;;;;;;3.00;1.50;;;;;18.48;46.29;99935.34;5056669;28;46290;-56
2022/11/15 09:44:06;;;;;;;;;2.00;1.75;;;;;18.49;46.14;99944.91;5056784;28;45728;-57
2022/11/15 09:46:42;;;;;;;;;3.00;2.00;;;;;18.47;46.16;99932.84;5057358;28;45285;-56
2022/11/15 09:49:11;;;;;;;;;1.00;1.00;;;;;18.48;46.01;99935.34;5057105;28;45283;-57
2022/11/15 09:51:46;;;;;;;;;2.00;1.50;;;;;18.48;46.37;99931.91;5055578;28;48156;-56
2022/11/15 09:54:34;;;;;;;;;1.00;1.00;;;;;18.49;45.99;99939.66;5056833;28;45310;-55
2022/11/15 09:57:09;;;;;;;;;2.50;1.00;;;;;18.49;46.28;99936.22;5062944;28;45272;-56
2022/11/15 09:59:55;;;;;;;;;1.00;1.00;;;;;18.49;46.12;99942.28;5060424;28;45264;-55
2022/11/15 10:02:30;;;;;;;;;2.00;1.00;;;;;18.49;46.34;99929.16;5056779;28;47024;-56
2022/11/15 10:04:58;;;;;;;;;2.00;2.00;;;;;18.49;46.26;99923.91;5056870;28;45819;-56
2022/11/15 10:07:42;;;;;;;;;1.00;1.00;;;;;18.49;46.08;99923.09;5056885;28;45226;-56
2022/11/15 10:10:10;;;;;;;;;2.00;2.00;;;;;18.50;46.50;99919.53;5057044;28;45390;-56
2022/11/15 10:12:35;;;;;;;;;2.00;2.00;;;;;18.49;46.24;99907.34;5056895;28;46205;-55
2022/11/15 10:15:06;;;;;;;;;2.00;2.00;;;;;18.48;46.35;99909.13;5056804;28;45388;-56
2022/11/15 10:17:41;;;;;;;;;3.00;1.00;;;;;18.49;46.17;99902.94;5056189;28;45400;-55
2022/11/15 10:20:09;;;;;;;;;1.25;1.25;;;;;18.50;46.02;99888.88;5076592;28;45365;-55
2022/11/15 10:22:40;;;;;;;;;2.75;1.00;;;;;18.50;46.12;99883.63;5077737;28;45494;-56
2022/11/15 10:25:08;;;;;;;;;1.50;1.50;;;;;18.49;46.38;99871.44;5062758;28;45386;-55
2022/11/15 10:27:34;;;;;;;;;1.00;1.00;;;;;18.50;46.00;99862.63;5072468;28;45375;-55
2022/11/15 10:29:59;;;;;;;;;3.25;1.75;;;;;18.50;46.56;99865.25;5058750;28;45157;-56
2022/11/15 10:32:26;;;;;;;;;2.00;2.00;;;;;18.49;46.42;99866.19;5056605;28;46343;-56
2022/11/15 10:34:51;;;;;;;;;3.00;1.25;;;;;18.48;46.08;99869.75;5056433;28;45407;-56
2022/11/15 10:37:31;;;;;;;;;1.00;1.00;;;;;18.49;46.21;99860.13;5056429;28;45370;-56
2022/11/15 10:40:06;;;;;;;;;1.25;1.25;;;;;18.50;46.17;99859.19;5056550;28;45387;-56
2022/11/15 10:42:32;;;;;;;;;1.50;1.50;;;;;18.51;46.48;99850.38;5055947;28;46067;-56
2022/11/15 10:44:57;;;;;;;;;4.00;2.00;;;;;18.51;46.19;99843.34;5056023;28;45369;-56
2022/11/15 10:47:28;;;;;;;;;1.00;1.00;;;;;18.51;46.49;99838.09;5055856;28;51174;-57
2022/11/15 10:49:56;;;;;;;;;1.00;1.00;;;;;18.51;46.39;99845.13;5055111;28;45384;-56
2022/11/15 10:52:23;;;;;;;;;2.00;2.00;;;;;18.51;46.04;99837.25;5055945;28;48319;-56
2022/11/15 10:55:03;;;;;;;;;2.00;2.00;;;;;18.51;46.54;99832.84;5056015;28;45249;-55
2022/11/15 10:57:36;;;;;;;;;2.00;1.25;;;;;18.49;46.42;99824.22;5057072;28;45437;-57
2022/11/15 11:00:04;;;;;;;;;2.00;1.00;;;;;18.50;46.33;99823.28;5068076;28;45419;-57
2022/11/15 11:02:56;;;;;;;;;2.25;2.00;;;;;18.50;46.25;99812.78;5072812;28;45406;-56
2022/11/15 11:05:32;;;;;;;;;2.00;2.00;;;;;18.51;46.19;99808.38;5058424;28;45886;-55
2022/11/15 11:08:02;;;;;;;;;2.00;2.00;;;;;18.49;46.49;99791.91;5057439;28;45466;-54
2022/11/15 11:10:28;;;;;;;;;2.00;2.00;;;;;18.49;46.38;99800.59;5059191;28;45215;-56
2022/11/15 11:12:53;;;;;;;;;1.50;1.25;;;;;18.50;46.29;99793.59;5075440;28;45181;-56
2022/11/15 11:15:19;;;;;;;;;1.00;1.00;;;;;18.50;46.54;99791.78;5072240;28;45343;-54
2022/11/15 11:18:15;;;;;;;;;1.00;1.00;;;;;18.50;46.57;99789.16;5063535;28;45712;-56
2022/11/15 11:20:49;;;;;;;;;3.00;1.75;;;;;18.50;46.33;99780.47;5059132;28;45300;-56
2022/11/15 11:23:21;;;;;;;;;2.00;2.00;;;;;18.50;46.75;99778.66;5058056;28;45320;-55
2022/11/15 11:26:15;;;;;;;;;3.25;2.00;;;;;18.51;46.71;99771.66;5063972;28;45454;-56
2022/11/15 11:28:59;;;;;;;;;3.50;1.00;;;;;18.50;46.53;99783.09;5075199;28;45476;-56
2022/11/15 11:31:42;;;;;;;;;1.50;1.00;;;;;18.50;46.56;99773.41;5077419;28;44778;-55
2022/11/15 11:34:47;;;;;;;;;1.00;1.00;;;;;18.52;46.70;99775.97;5066010;28;46831;-55
2022/11/15 11:37:35;;;;;;;;;3.25;2.00;;;;;18.50;46.91;99772.59;5030163;28;45449;-55
2022/11/15 11:40:24;;;;;;;;;3.00;1.00;;;;;18.49;46.83;99769.13;5060403;28;45347;-55
2022/11/15 11:42:58;;;;;;;;;2.00;2.00;;;;;18.51;46.67;99763.78;5059996;28;45541;-57
2022/11/15 11:45:27;;;;;;;;;1.50;1.50;;;;;18.50;46.90;99762.94;5069675;28;47077;-55